KNGP/NGP METAR and TAF weather

Enter ICAO airport designator
Station Type Date Time Source
KNGP METAR 2018/12/13 05:56 UTC NOAA

KNGP 130556Z AUTO 19006KT 10SM FEW016 20/18 A2983 RMK AO2 SLP100 T02000183 10206 20200 402330161 56020


Station Type Date Time Source
KNGP Decoded METAR 2018/12/13 05:56 UTC NOAA

CORPUS CHRISTI NAVAL AIR STN, TX, United States (KNGP) 27-41N 097-17W
Dec 13, 2018 - 12:56 AM EST / 2018.12.13 0556 UTC
Wind: from the S (190 degrees) at 7 MPH (6 KT):0
Visibility: 10 mile(s):0
Sky conditions: mostly clear
Temperature: 68.0 F (20.0 C)
Dew Point: 64.9 F (18.3 C)
Relative Humidity: 89%
Pressure (altimeter): 29.83 in. Hg (1010 hPa)
Pressure tendency: 0.06 inches (2.0 hPa) lower than three hours ago
ob: KNGP 130556Z AUTO 19006KT 10SM FEW016 20/18 A2983 RMK AO2 SLP100 T02000183 10206 20200 402330161 56020
cycle: 6

Station Type Date Time Source
KNGP TAF 2018/12/12 23:10 UTC NOAA

TAF KNGP 1223/1323 16012KT 9999 VCSH SCT025 SCT045 OVC250 510055 QNH2984INS
TEMPO 1300/1306 18013G20KT 6000 -SHRA BKN025 OVC040
FM130600 20013G21KT 9999 VCSH FEW020 SCT035 BKN110 OVC200 611209 612105 500000 QNH2974INS
TEMPO 1306/1309 8000 -SHRA BR BKN020
FM131300 24015G22KT 9999 FEW020 FEW100 BKN250 600000 QNH2973INS
BECMG 1315/1317 29023G30KT 9999 FEW030 SCT250 520003 QNH2977INS
BECMG 1317/1319 30035G46KT 9999 FEW250 530004 532508 QNH2979INS
TEMPO 1319/1323 30040G50KT AUTOMATED SENSOR METWATCH 1305 TIL 1312 T19/1311Z T22/1318Z FN20042


Example: see airport list